createdAt,value
2023-05-13T00:00:25.006Z,3.80
2023-05-13T00:01:25.000Z,3.60
2023-05-13T00:02:25.041Z,3.90
2023-05-13T00:03:34.924Z,3.70
2023-05-13T00:04:31.970Z,4.20
2023-05-13T00:05:31.770Z,4.20
2023-05-13T00:06:33.349Z,4.00
2023-05-13T00:07:24.928Z,4.10
2023-05-13T00:08:31.841Z,4.20
2023-05-13T00:09:32.402Z,4.20
2023-05-13T00:10:34.862Z,4.50
2023-05-13T00:11:31.869Z,4.30
2023-05-13T00:12:30.886Z,4.60
2023-05-13T00:13:32.938Z,4.30
2023-05-13T00:14:24.850Z,4.70
2023-05-13T00:15:34.420Z,4.40
2023-05-13T00:16:31.481Z,4.50
2023-05-13T00:17:24.872Z,4.40
2023-05-13T00:18:25.018Z,4.60
2023-05-13T00:19:30.821Z,4.70
2023-05-13T00:20:24.809Z,4.80
2023-05-13T00:21:24.773Z,4.80
2023-05-13T00:22:24.777Z,4.80
2023-05-13T00:23:24.774Z,4.80
2023-05-13T00:24:24.746Z,4.80
2023-05-13T00:25:24.732Z,5.30
2023-05-13T00:26:24.734Z,4.80
2023-05-13T00:27:24.733Z,5.00
2023-05-13T00:31:53.536Z,5.50
2023-05-13T00:32:54.513Z,5.90
2023-05-13T00:33:54.494Z,5.80
2023-05-13T00:34:54.487Z,5.90
2023-05-13T00:36:05.259Z,5.90
2023-05-13T00:36:54.458Z,6.00
2023-05-13T00:37:54.489Z,5.90
2023-05-13T00:39:01.792Z,5.60
2023-05-13T00:40:01.303Z,5.50
2023-05-13T00:40:54.417Z,6.00
2023-05-13T00:45:28.077Z,6.40
2023-05-13T00:46:35.582Z,6.30
2023-05-13T00:47:28.807Z,5.60
2023-05-13T00:48:35.601Z,6.10
2023-05-13T00:49:38.624Z,6.30
2023-05-13T00:50:37.718Z,6.60
2023-05-13T00:51:39.172Z,6.30
2023-05-13T00:52:28.709Z,6.60
2023-05-13T00:53:35.675Z,6.40
2023-05-13T00:54:29.176Z,6.40
2023-05-13T00:55:28.660Z,6.80
2023-05-13T00:58:48.561Z,6.70
2023-05-13T00:59:49.554Z,7.00
2023-05-13T01:00:49.571Z,7.20
2023-05-13T01:01:49.524Z,7.20
2023-05-13T01:02:56.365Z,7.40
2023-05-13T01:03:56.354Z,7.00
2023-05-13T01:04:49.477Z,7.30
2023-05-13T01:05:49.490Z,8.00
2023-05-13T01:06:49.484Z,7.00
2023-05-13T01:07:49.457Z,7.50
2023-05-13T01:08:56.313Z,7.60
2023-05-13T01:09:49.434Z,7.40
2023-05-13T01:13:06.820Z,8.00
2023-05-13T01:14:07.815Z,8.20
2023-05-13T01:15:14.561Z,7.80
2023-05-13T01:16:08.644Z,7.90
2023-05-13T01:18:24.625Z,7.90
2023-05-13T01:21:42.997Z,8.60
2023-05-13T01:22:50.751Z,8.70
2023-05-13T01:23:43.962Z,8.60
2023-05-13T01:24:53.750Z,8.40
2023-05-13T01:25:54.290Z,8.70
2023-05-13T01:26:43.916Z,8.20
2023-05-13T01:27:50.793Z,8.50
2023-05-13T01:28:54.814Z,8.80
2023-05-13T01:29:43.924Z,8.60
2023-05-13T01:30:43.883Z,8.80
2023-05-13T01:31:52.886Z,8.50
2023-05-13T01:32:44.413Z,8.60
2023-05-13T01:33:43.837Z,8.50
2023-05-13T01:34:43.844Z,8.90
2023-05-13T01:35:43.871Z,8.90
2023-05-13T01:36:53.362Z,8.90
2023-05-13T01:39:00.648Z,8.60
2023-05-13T01:40:02.794Z,8.80
2023-05-13T01:41:09.899Z,9.30
2023-05-13T01:42:01.623Z,8.20
2023-05-13T01:43:01.609Z,9.40
2023-05-13T01:44:08.417Z,9.30
2023-05-13T01:45:09.922Z,9.30
2023-05-13T01:48:18.965Z,9.50
2023-05-13T01:49:20.026Z,9.40
2023-05-13T01:50:20.267Z,9.50
2023-05-13T01:51:19.924Z,8.70
2023-05-13T01:52:19.926Z,9.70
2023-05-13T01:53:29.720Z,9.00
2023-05-13T01:54:19.897Z,9.10
2023-05-13T01:57:37.280Z,8.50
2023-05-13T01:58:38.527Z,8.60
2023-05-13T01:59:48.040Z,9.50
2023-05-13T02:00:48.061Z,9.20
2023-05-13T02:01:45.619Z,9.20
2023-05-13T02:02:38.268Z,9.50
2023-05-13T02:03:45.134Z,9.30
2023-05-13T02:04:38.245Z,8.60
2023-05-13T02:05:48.114Z,9.00
2023-05-13T02:06:38.196Z,9.20
2023-05-13T02:07:47.630Z,8.90
2023-05-13T02:08:38.169Z,9.30
2023-05-13T02:09:45.137Z,8.80
2023-05-13T02:10:38.145Z,9.10
2023-05-13T02:11:38.132Z,8.60
2023-05-13T02:12:38.134Z,8.60
2023-05-13T02:13:38.103Z,8.70
2023-05-13T02:14:38.095Z,9.30
2023-05-13T02:15:44.654Z,9.80
2023-05-13T02:16:38.107Z,10.10
2023-05-13T02:17:45.784Z,9.20
2023-05-13T02:18:38.129Z,8.30
2023-05-13T02:19:44.705Z,9.00
2023-05-13T02:20:44.744Z,9.00
2023-05-13T02:21:38.017Z,9.70
2023-05-13T02:22:44.751Z,9.10
2023-05-13T02:23:44.774Z,9.20
2023-05-13T02:24:37.991Z,9.70
2023-05-13T02:25:47.305Z,9.70
2023-05-13T02:26:37.975Z,9.40
2023-05-13T02:27:46.304Z,9.90
2023-05-13T02:28:37.946Z,9.10
2023-05-13T02:29:37.937Z,8.60
2023-05-13T02:30:38.322Z,8.70
2023-05-13T02:31:47.409Z,9.10
2023-05-13T02:34:52.849Z,7.70
2023-05-13T02:36:03.554Z,7.60
2023-05-13T02:36:53.784Z,8.00
2023-05-13T02:37:53.760Z,7.60
2023-05-13T02:38:53.760Z,8.30
2023-05-13T02:39:53.797Z,8.00
2023-05-13T02:41:04.574Z,7.50
2023-05-13T02:44:48.225Z,6.60
2023-05-13T02:45:55.280Z,6.90
2023-05-13T02:46:55.189Z,7.00
2023-05-13T02:47:49.250Z,7.00
2023-05-13T02:48:49.194Z,6.70
2023-05-13T02:49:56.644Z,7.00
2023-05-13T02:50:49.177Z,6.60
2023-05-13T02:51:49.658Z,6.70
2023-05-13T02:52:49.161Z,6.80
2023-05-13T02:53:55.230Z,6.90
2023-05-13T02:54:49.258Z,8.10
2023-05-13T02:55:49.114Z,8.20
2023-05-13T02:56:55.674Z,8.00
2023-05-13T02:57:55.712Z,8.60
2023-05-13T02:58:49.131Z,8.10
2023-05-13T02:59:49.074Z,7.90
2023-05-13T03:00:49.062Z,7.90
2023-05-13T03:01:55.712Z,7.40
2023-05-13T03:02:57.293Z,8.20
2023-05-13T03:03:49.075Z,7.30
2023-05-13T03:04:49.025Z,8.70
2023-05-13T03:05:56.776Z,8.90
2023-05-13T03:09:10.636Z,8.90
2023-05-13T03:10:11.387Z,9.30
2023-05-13T03:11:11.356Z,9.30
2023-05-13T03:12:19.673Z,9.50
2023-05-13T03:13:11.361Z,9.60
2023-05-13T03:14:11.334Z,9.90
2023-05-13T03:15:20.336Z,9.90
2023-05-13T03:16:11.332Z,9.50
2023-05-13T03:17:18.220Z,9.90
2023-05-13T03:18:11.685Z,9.70
2023-05-13T03:19:11.347Z,9.80
2023-05-13T03:20:11.272Z,10.70
2023-05-13T03:21:11.258Z,10.20
2023-05-13T03:22:11.262Z,10.00
2023-05-13T03:25:27.364Z,10.70
2023-05-13T03:26:35.626Z,10.70
2023-05-13T03:27:28.101Z,10.70
2023-05-13T03:28:28.394Z,9.70
2023-05-13T03:29:28.066Z,10.80
2023-05-13T03:30:28.071Z,10.80
2023-05-13T03:31:39.481Z,10.50
2023-05-13T03:32:28.063Z,10.70
2023-05-13T03:33:28.034Z,11.20
2023-05-13T03:34:28.046Z,10.70
2023-05-13T03:35:34.924Z,10.80
2023-05-13T03:36:28.002Z,10.90
2023-05-13T03:37:27.981Z,11.80
2023-05-13T03:38:27.971Z,10.90
2023-05-13T03:39:37.929Z,12.20
2023-05-13T03:40:36.453Z,11.80
2023-05-13T03:41:27.929Z,12.20
2023-05-13T03:43:43.282Z,12.70
2023-05-13T03:44:44.259Z,13.20
2023-05-13T03:45:44.254Z,12.90
2023-05-13T03:46:44.326Z,12.90
2023-05-13T03:47:44.598Z,12.90
2023-05-13T03:51:12.534Z,13.30
2023-05-13T03:52:13.537Z,13.70
2023-05-13T03:53:13.516Z,12.80
2023-05-13T03:54:21.871Z,13.70
2023-05-13T03:55:13.527Z,13.30
2023-05-13T03:56:13.510Z,13.20
2023-05-13T03:57:20.387Z,13.90
2023-05-13T03:58:13.500Z,13.50
2023-05-13T03:59:13.452Z,13.90
2023-05-13T04:01:28.792Z,13.70
2023-05-13T04:02:38.140Z,13.70
2023-05-13T04:03:29.839Z,14.60
2023-05-13T04:04:29.812Z,13.60
2023-05-13T04:05:30.035Z,13.50
2023-05-13T04:06:29.742Z,14.40
2023-05-13T04:10:58.020Z,12.70
2023-05-13T04:11:58.994Z,13.50
2023-05-13T04:12:58.993Z,14.20
2023-05-13T04:13:58.971Z,13.10
2023-05-13T04:15:08.776Z,13.60
2023-05-13T04:15:58.965Z,13.60
2023-05-13T04:17:05.929Z,13.20
2023-05-13T04:17:58.936Z,12.80
2023-05-13T04:18:59.001Z,13.00
2023-05-13T04:19:58.897Z,12.20
2023-05-13T04:21:05.865Z,13.20
2023-05-13T04:21:58.902Z,12.90
2023-05-13T04:22:58.877Z,12.30
2023-05-13T04:23:58.855Z,13.20
2023-05-13T04:24:58.875Z,13.40
2023-05-13T04:25:58.857Z,13.70
2023-05-13T04:27:00.100Z,14.00
2023-05-13T04:28:08.352Z,13.60
2023-05-13T04:28:58.815Z,12.70
2023-05-13T04:30:06.876Z,12.90
2023-05-13T04:30:58.807Z,12.30
2023-05-13T04:32:08.500Z,13.20
2023-05-13T04:32:58.885Z,12.80
2023-05-13T04:33:58.751Z,13.00
2023-05-13T04:34:58.742Z,12.90
2023-05-13T04:36:05.401Z,12.30
2023-05-13T04:36:58.739Z,12.80
2023-05-13T04:38:08.444Z,11.90
2023-05-13T04:38:58.710Z,12.40
2023-05-13T04:42:42.913Z,12.40
2023-05-13T04:43:51.440Z,12.20
2023-05-13T04:44:43.119Z,13.20
2023-05-13T04:45:43.094Z,13.10
2023-05-13T04:46:43.181Z,12.30
2023-05-13T04:47:53.653Z,13.00
2023-05-13T04:48:49.987Z,12.30
2023-05-13T04:49:43.076Z,11.70
2023-05-13T04:53:00.451Z,12.00
2023-05-13T04:54:01.409Z,11.80
2023-05-13T05:00:53.437Z,12.30
2023-05-13T05:01:53.667Z,13.00
2023-05-13T05:02:53.710Z,12.00
2023-05-13T05:03:53.968Z,12.50
2023-05-13T05:05:00.445Z,12.70
2023-05-13T05:05:53.603Z,12.80
2023-05-13T05:06:53.589Z,12.40
2023-05-13T05:07:53.557Z,12.50
2023-05-13T05:10:16.374Z,11.90
2023-05-13T05:11:17.394Z,11.80
2023-05-13T05:12:17.369Z,11.60
2023-05-13T05:13:27.135Z,12.40
2023-05-13T05:14:17.326Z,12.50
2023-05-13T05:15:17.325Z,11.80
2023-05-13T05:16:17.323Z,11.70
2023-05-13T05:17:23.385Z,12.60
2023-05-13T05:18:17.357Z,12.30
2023-05-13T05:19:17.393Z,13.20
2023-05-13T05:20:24.241Z,12.70
2023-05-13T05:21:17.262Z,10.90
2023-05-13T05:22:17.317Z,10.20
2023-05-13T05:23:17.249Z,10.10
2023-05-13T05:24:27.224Z,10.10
2023-05-13T05:25:17.231Z,7.70
2023-05-13T05:26:17.208Z,9.10
2023-05-13T05:27:17.213Z,8.90
2023-05-13T05:28:17.212Z,8.40
2023-05-13T05:29:26.721Z,8.90
2023-05-13T05:30:17.186Z,7.90
2023-05-13T05:31:22.451Z,8.00
2023-05-13T05:32:17.137Z,8.50
2023-05-13T05:33:17.146Z,8.40
2023-05-13T05:34:17.113Z,8.30
2023-05-13T05:35:23.735Z,7.90
2023-05-13T05:36:17.283Z,7.50
2023-05-13T05:37:17.080Z,8.20
2023-05-13T05:38:17.078Z,8.00
2023-05-13T05:39:17.053Z,8.00
2023-05-13T05:40:23.840Z,8.10
2023-05-13T05:41:17.259Z,8.80
2023-05-13T05:42:17.015Z,8.10
2023-05-13T05:43:23.766Z,7.80
2023-05-13T05:44:17.013Z,7.90
2023-05-13T05:45:16.998Z,7.50
2023-05-13T05:46:23.846Z,7.60
2023-05-13T05:47:23.800Z,7.60
2023-05-13T05:50:34.356Z,6.90
2023-05-13T05:51:35.350Z,7.10
2023-05-13T05:52:35.326Z,7.60
2023-05-13T05:53:44.621Z,7.70
2023-05-13T05:54:35.324Z,6.70
2023-05-13T05:55:35.318Z,6.70
2023-05-13T05:56:42.144Z,7.10
2023-05-13T05:57:35.293Z,6.90
2023-05-13T05:58:35.641Z,7.20
2023-05-13T05:59:45.147Z,6.40
2023-05-13T06:00:42.170Z,6.70
2023-05-13T06:01:41.700Z,6.20
2023-05-13T06:02:35.363Z,6.20
2023-05-13T06:03:45.370Z,6.40
2023-05-13T06:04:41.857Z,6.30
2023-05-13T06:05:43.276Z,6.20
2023-05-13T06:06:45.823Z,6.30
2023-05-13T06:07:35.174Z,6.70
2023-05-13T06:08:35.282Z,6.40
2023-05-13T06:09:35.168Z,6.30
2023-05-13T06:10:35.143Z,6.60
2023-05-13T06:11:44.794Z,6.10
2023-05-13T06:12:35.127Z,6.40
2023-05-13T06:13:43.327Z,6.70
2023-05-13T06:14:35.097Z,6.40
2023-05-13T06:15:44.112Z,6.80
2023-05-13T06:16:43.356Z,5.80
2023-05-13T06:17:35.116Z,6.30
2023-05-13T06:18:35.130Z,5.80
2023-05-13T06:19:35.045Z,5.80
2023-05-13T06:20:35.361Z,5.30
2023-05-13T06:21:35.030Z,5.40
2023-05-13T06:22:44.842Z,5.50
2023-05-13T06:23:44.004Z,5.60
2023-05-13T06:24:34.982Z,4.60
2023-05-13T06:25:34.973Z,4.90
2023-05-13T06:30:07.154Z,5.10
2023-05-13T06:31:19.950Z,5.00
2023-05-13T06:32:08.171Z,5.00
2023-05-13T06:33:08.162Z,4.40
2023-05-13T06:34:08.129Z,4.40
2023-05-13T06:35:16.426Z,4.60
2023-05-13T06:36:08.112Z,4.80
2023-05-13T06:37:14.966Z,4.40
2023-05-13T06:38:17.967Z,4.20
2023-05-13T06:39:15.000Z,3.60
2023-05-13T06:40:08.084Z,4.10
2023-05-13T06:41:08.065Z,3.90
2023-05-13T06:42:09.008Z,4.20
2023-05-13T06:43:08.026Z,3.80
2023-05-13T06:44:15.541Z,3.80
2023-05-13T06:46:23.380Z,3.50
2023-05-13T06:47:24.411Z,3.40
2023-05-13T06:48:24.320Z,3.70
2023-05-13T06:49:31.112Z,3.90
2023-05-13T06:51:39.628Z,3.20
2023-05-13T06:52:41.983Z,3.10
2023-05-13T06:53:40.621Z,3.50
2023-05-13T06:54:40.621Z,2.80
2023-05-13T06:55:40.880Z,3.20
2023-05-13T06:56:40.587Z,3.00
2023-05-13T06:57:48.917Z,2.80
2023-05-13T06:58:50.427Z,3.40
2023-05-13T06:59:40.557Z,3.20
2023-05-13T07:01:57.616Z,3.30
2023-05-13T07:02:58.394Z,3.30
2023-05-13T07:07:53.897Z,3.40
2023-05-13T07:09:08.006Z,3.40
2023-05-13T07:11:38.064Z,3.00
2023-05-13T07:12:39.092Z,3.10
2023-05-13T07:13:46.762Z,3.30
2023-05-13T07:14:48.966Z,3.00
2023-05-13T07:15:39.020Z,3.30
2023-05-13T07:16:39.013Z,3.40
2023-05-13T07:17:39.085Z,3.10
2023-05-13T07:18:46.506Z,3.40
2023-05-13T07:19:49.041Z,3.00
2023-05-13T07:20:48.044Z,2.90
2023-05-13T07:21:38.971Z,3.90
2023-05-13T07:22:38.940Z,3.60
2023-05-13T07:23:45.550Z,3.30
2023-05-13T07:24:38.933Z,3.50
2023-05-13T07:25:38.926Z,3.40
2023-05-13T07:26:48.571Z,3.20
2023-05-13T07:27:38.916Z,2.90
2023-05-13T07:28:45.595Z,3.10
2023-05-13T07:29:47.862Z,3.10
2023-05-13T07:30:38.848Z,3.30
2023-05-13T07:33:56.262Z,3.60
2023-05-13T07:34:57.225Z,3.50
2023-05-13T07:38:43.254Z,3.20
2023-05-13T07:39:43.998Z,3.20
2023-05-13T07:40:50.273Z,3.30
2023-05-13T07:41:43.993Z,3.30
2023-05-13T07:42:50.817Z,3.50
2023-05-13T07:43:50.830Z,3.40
2023-05-13T07:44:43.934Z,3.40
2023-05-13T07:45:43.959Z,3.30
2023-05-13T07:46:53.933Z,3.20
2023-05-13T07:47:44.778Z,3.30
2023-05-13T07:48:50.821Z,3.40
2023-05-13T07:55:37.567Z,3.40
2023-05-13T07:56:49.314Z,3.60
2023-05-13T07:57:38.555Z,3.60
2023-05-13T08:00:57.365Z,3.40
2023-05-13T08:02:05.105Z,3.40
2023-05-13T08:02:58.412Z,3.70
2023-05-13T08:04:06.802Z,3.40
2023-05-13T08:05:05.142Z,3.50
2023-05-13T08:05:58.329Z,3.60
2023-05-13T08:07:05.136Z,3.60
2023-05-13T08:10:46.560Z,3.10
2023-05-13T08:11:47.548Z,3.20
2023-05-13T08:12:47.535Z,3.70
2023-05-13T08:16:02.458Z,3.80
2023-05-13T08:17:03.416Z,3.70
2023-05-13T08:18:11.330Z,3.90
2023-05-13T08:19:03.402Z,3.60
2023-05-13T08:20:03.993Z,4.10
2023-05-13T08:21:03.453Z,3.40
2023-05-13T08:22:03.353Z,3.40
2023-05-13T08:23:03.387Z,4.00
2023-05-13T08:24:03.703Z,3.60
2023-05-13T08:25:03.319Z,3.80
2023-05-13T08:26:03.292Z,3.50
2023-05-13T08:27:03.279Z,3.60
2023-05-13T08:28:03.308Z,4.10
2023-05-13T08:29:03.262Z,4.00
2023-05-13T08:30:03.294Z,4.00
2023-05-13T08:31:10.215Z,3.90
2023-05-13T08:32:03.258Z,3.90
2023-05-13T08:33:03.262Z,3.50
2023-05-13T08:36:19.078Z,4.10
2023-05-13T08:37:20.073Z,4.30
2023-05-13T08:38:26.885Z,4.00
2023-05-13T08:39:26.856Z,4.20
2023-05-13T08:40:27.920Z,4.50
2023-05-13T08:41:21.930Z,4.20
2023-05-13T08:42:20.027Z,4.20
2023-05-13T08:43:26.934Z,4.40
2023-05-13T08:44:20.468Z,4.20
2023-05-13T08:45:26.966Z,3.90
2023-05-13T08:46:20.514Z,4.00
2023-05-13T08:47:26.484Z,4.00
2023-05-13T08:48:19.993Z,3.90
2023-05-13T08:49:19.945Z,3.90
2023-05-13T08:50:19.935Z,3.90
2023-05-13T08:51:19.985Z,3.90
2023-05-13T08:52:19.927Z,4.20
2023-05-13T08:53:19.911Z,4.40
2023-05-13T08:54:27.531Z,4.20
2023-05-13T08:55:27.547Z,4.00
2023-05-13T08:56:26.087Z,4.20
2023-05-13T08:57:26.572Z,4.10
2023-05-13T08:58:19.854Z,3.90
2023-05-13T09:01:35.840Z,4.20
2023-05-13T09:02:36.733Z,4.20
2023-05-13T09:03:36.704Z,4.20
2023-05-13T09:07:54.126Z,3.70
2023-05-13T09:08:55.108Z,3.60
2023-05-13T09:09:55.090Z,3.40
2023-05-13T09:10:55.074Z,3.40
2023-05-13T09:11:55.082Z,3.40
2023-05-13T09:13:02.539Z,3.30
2023-05-13T09:13:55.061Z,3.50
2023-05-13T09:15:02.573Z,3.60
2023-05-13T09:16:01.147Z,3.40
2023-05-13T09:16:55.026Z,3.10
2023-05-13T09:17:55.035Z,3.20
2023-05-13T09:18:55.066Z,3.20
2023-05-13T09:20:21.304Z,3.30
2023-05-13T09:26:48.625Z,2.60
2023-05-13T09:27:57.071Z,2.70
2023-05-13T09:28:49.647Z,2.50
2023-05-13T09:29:56.490Z,2.70
2023-05-13T09:30:49.646Z,2.80
2023-05-13T09:31:50.176Z,2.80
2023-05-13T09:32:49.676Z,2.70
2023-05-13T09:33:49.583Z,2.70
2023-05-13T09:34:49.558Z,2.90
2023-05-13T09:35:56.089Z,2.70
2023-05-13T09:36:50.213Z,2.80
2023-05-13T09:37:55.536Z,2.70
2023-05-13T09:38:50.125Z,2.70
2023-05-13T09:39:49.521Z,2.70
2023-05-13T09:40:56.286Z,2.70
2023-05-13T09:41:56.146Z,2.50
2023-05-13T09:42:49.512Z,2.70
2023-05-13T09:43:49.700Z,2.60
2023-05-13T09:44:49.463Z,2.30
2023-05-13T09:45:56.205Z,2.30
2023-05-13T09:46:49.496Z,2.50
2023-05-13T09:47:49.496Z,2.70
2023-05-13T09:48:57.124Z,2.50
2023-05-13T09:49:49.394Z,2.30
2023-05-13T09:50:49.387Z,2.50
2023-05-13T09:57:07.331Z,2.90
2023-05-13T09:58:07.920Z,2.70
2023-05-13T09:59:14.875Z,2.40
2023-05-13T10:00:12.869Z,2.50
2023-05-13T10:01:07.917Z,2.50
2023-05-13T10:02:15.382Z,2.40
2023-05-13T10:03:14.939Z,2.50
2023-05-13T10:04:07.965Z,2.40
2023-05-13T10:05:07.836Z,2.40
2023-05-13T10:06:07.842Z,2.40
2023-05-13T10:07:07.901Z,2.70
2023-05-13T10:08:15.917Z,2.60
2023-05-13T10:09:07.791Z,2.20
2023-05-13T10:12:25.210Z,2.40
2023-05-13T10:13:32.941Z,2.60
2023-05-13T10:14:26.146Z,2.50
2023-05-13T10:15:37.969Z,2.60
2023-05-13T10:16:26.215Z,2.30
2023-05-13T10:17:35.139Z,2.60
2023-05-13T10:18:26.178Z,2.40
2023-05-13T10:19:26.093Z,2.40
2023-05-13T10:20:26.108Z,2.50
2023-05-13T10:21:26.094Z,2.60
2023-05-13T10:22:32.066Z,2.70
2023-05-13T10:23:26.066Z,2.60
2023-05-13T10:24:26.601Z,2.60
2023-05-13T10:25:26.024Z,2.50
2023-05-13T10:26:26.018Z,2.60
2023-05-13T10:27:26.029Z,2.70
2023-05-13T10:28:25.995Z,2.90
2023-05-13T10:29:25.981Z,2.60
2023-05-13T10:30:25.966Z,2.60
2023-05-13T10:31:26.051Z,2.80
2023-05-13T10:32:25.984Z,2.50
2023-05-13T10:33:32.524Z,2.20
2023-05-13T10:34:25.948Z,2.60
2023-05-13T10:35:38.103Z,2.50
2023-05-13T10:36:25.923Z,2.40
2023-05-13T10:37:25.936Z,2.40
2023-05-13T10:38:25.891Z,2.50
2023-05-13T10:39:35.568Z,2.50
2023-05-13T10:40:35.600Z,2.80
2023-05-13T10:41:35.622Z,2.70
2023-05-13T10:42:25.846Z,2.30
2023-05-13T10:43:25.816Z,2.30
2023-05-13T10:44:25.828Z,2.40
2023-05-13T10:45:33.636Z,2.50
2023-05-13T10:46:25.924Z,2.40
2023-05-13T10:47:25.875Z,2.70
2023-05-13T10:48:25.805Z,2.40
2023-05-13T10:49:32.637Z,2.50
2023-05-13T10:50:25.764Z,2.40
2023-05-13T10:51:25.780Z,2.40
2023-05-13T10:52:31.717Z,2.40
2023-05-13T10:53:25.740Z,2.50
2023-05-13T10:54:25.713Z,2.70
2023-05-13T10:55:33.670Z,2.50
2023-05-13T10:56:25.708Z,2.70
2023-05-13T10:58:42.534Z,2.80
2023-05-13T10:59:43.488Z,2.70
2023-05-13T11:00:43.483Z,2.50
2023-05-13T11:01:43.743Z,2.70
2023-05-13T11:02:43.540Z,2.70
2023-05-13T11:03:43.549Z,2.50
2023-05-13T11:04:43.450Z,2.90
2023-05-13T11:05:43.432Z,3.90
2023-05-13T11:06:43.402Z,3.00
2023-05-13T11:07:43.392Z,3.20
2023-05-13T11:08:43.784Z,2.60
2023-05-13T11:09:51.799Z,2.80
2023-05-13T11:10:50.316Z,2.60
2023-05-13T11:11:49.377Z,3.10
2023-05-13T11:12:43.344Z,3.10
2023-05-13T11:13:53.385Z,2.90
2023-05-13T11:14:43.345Z,2.90
2023-05-13T11:15:43.366Z,3.50
2023-05-13T11:19:01.001Z,2.70
2023-05-13T11:20:01.692Z,2.80
2023-05-13T11:23:17.578Z,2.40
2023-05-13T11:24:18.573Z,2.30
2023-05-13T11:25:18.564Z,2.50
2023-05-13T11:26:18.542Z,2.80
2023-05-13T11:27:25.352Z,2.70
2023-05-13T11:28:18.512Z,2.90
2023-05-13T11:29:25.873Z,2.80
2023-05-13T11:30:18.566Z,2.80
2023-05-13T11:31:24.490Z,3.00
2023-05-13T11:32:18.478Z,2.90
2023-05-13T11:33:25.938Z,3.20
2023-05-13T11:34:25.458Z,2.70
2023-05-13T11:35:18.470Z,2.80
2023-05-13T11:36:18.438Z,3.00
2023-05-13T11:37:24.970Z,2.70
2023-05-13T11:38:25.288Z,2.70
2023-05-13T11:39:18.400Z,2.80
2023-05-13T11:40:18.535Z,2.80
2023-05-13T11:41:18.378Z,2.70
2023-05-13T11:42:25.523Z,2.80
2023-05-13T11:43:18.349Z,2.60
2023-05-13T11:44:18.346Z,2.50
2023-05-13T11:45:18.351Z,2.60
2023-05-13T11:46:25.153Z,2.90
2023-05-13T11:47:27.327Z,2.80
2023-05-13T11:48:18.341Z,2.60
2023-05-13T11:49:18.290Z,2.70
2023-05-13T11:50:28.125Z,3.20
2023-05-13T11:51:18.283Z,2.90
2023-05-13T11:52:18.274Z,2.80
2023-05-13T11:53:28.254Z,2.90
2023-05-13T11:54:25.123Z,2.90
2023-05-13T11:55:18.234Z,2.80
2023-05-13T11:56:18.221Z,2.90
2023-05-13T11:57:25.176Z,2.80
2023-05-13T11:58:18.234Z,2.90
2023-05-13T11:59:18.197Z,2.90
2023-05-13T12:00:18.178Z,3.10
2023-05-13T12:01:25.164Z,3.10
2023-05-13T12:02:24.266Z,3.10
2023-05-13T12:03:18.163Z,3.50
2023-05-13T12:04:19.176Z,3.00
2023-05-13T12:05:18.171Z,3.30
2023-05-13T12:06:24.702Z,2.80
2023-05-13T12:07:18.163Z,3.00
2023-05-13T12:08:27.240Z,3.30
2023-05-13T12:09:18.112Z,3.10
2023-05-13T12:10:18.083Z,2.90
2023-05-13T12:11:18.061Z,3.10
2023-05-13T12:12:27.245Z,3.20
2023-05-13T12:14:58.306Z,3.10
2023-05-13T12:15:59.271Z,3.00
2023-05-13T12:17:06.112Z,3.20
2023-05-13T12:17:59.248Z,3.10
2023-05-13T12:18:59.293Z,3.00
2023-05-13T12:20:00.013Z,2.80
2023-05-13T12:21:09.137Z,3.00
2023-05-13T12:21:59.184Z,3.50
2023-05-13T12:22:59.753Z,4.60
2023-05-13T12:24:10.058Z,3.30
2023-05-13T12:24:59.173Z,3.00
2023-05-13T12:28:16.822Z,3.10
2023-05-13T12:29:28.298Z,3.00
2023-05-13T12:30:17.522Z,3.50
2023-05-13T12:31:17.578Z,2.80
2023-05-13T12:32:17.510Z,3.30
2023-05-13T12:33:25.373Z,3.00
2023-05-13T12:34:17.487Z,3.00
2023-05-13T12:37:44.639Z,3.00
2023-05-13T12:38:56.798Z,3.10
2023-05-13T12:39:45.585Z,3.50
2023-05-13T12:40:55.553Z,3.70
2023-05-13T12:41:45.576Z,4.30
2023-05-13T12:42:45.573Z,4.50
2023-05-13T12:43:45.553Z,5.40
2023-05-13T12:44:45.569Z,4.40
2023-05-13T12:45:52.080Z,3.90
2023-05-13T12:46:45.550Z,3.90
2023-05-13T12:47:52.097Z,3.50
2023-05-13T12:48:45.505Z,3.80
2023-05-13T12:49:45.485Z,3.50
2023-05-13T12:50:45.595Z,4.60
2023-05-13T12:51:45.468Z,4.50
2023-05-13T12:52:45.453Z,3.20
2023-05-13T12:53:53.138Z,2.70
2023-05-13T12:54:45.446Z,3.00
2023-05-13T12:55:45.640Z,2.80
2023-05-13T12:56:46.258Z,2.90
2023-05-13T12:57:52.150Z,3.00
2023-05-13T12:58:46.069Z,2.70
2023-05-13T12:59:45.386Z,2.70
2023-05-13T13:00:45.456Z,2.80
2023-05-13T13:01:45.356Z,2.80
2023-05-13T13:02:45.456Z,2.70
2023-05-13T13:03:45.463Z,2.80
2023-05-13T13:08:12.369Z,3.50
2023-05-13T13:09:13.120Z,3.50
2023-05-13T13:10:13.118Z,2.80
2023-05-13T13:11:19.899Z,2.90
2023-05-13T13:12:13.084Z,3.20
2023-05-13T13:13:13.409Z,3.00
2023-05-13T13:14:19.909Z,3.10
2023-05-13T13:15:13.083Z,3.10
2023-05-13T13:16:13.062Z,2.70
2023-05-13T13:17:13.046Z,2.90
2023-05-13T13:18:20.453Z,3.20
2023-05-13T13:19:13.030Z,2.80
2023-05-13T13:20:13.038Z,2.70
2023-05-13T13:21:20.503Z,3.10
2023-05-13T13:22:21.021Z,2.90
2023-05-13T13:23:12.990Z,3.20
2023-05-13T13:24:12.962Z,2.70
2023-05-13T13:26:39.493Z,2.80
2023-05-13T13:27:40.508Z,3.20
2023-05-13T13:28:40.463Z,3.00
2023-05-13T13:29:40.453Z,2.80
2023-05-13T13:30:40.714Z,2.80
2023-05-13T13:31:40.496Z,2.90
2023-05-13T13:32:47.240Z,3.10
2023-05-13T13:33:40.425Z,3.30
2023-05-13T13:34:40.397Z,3.10
2023-05-13T13:35:40.438Z,2.80
2023-05-13T13:36:40.751Z,2.80
2023-05-13T13:39:56.270Z,2.50
2023-05-13T13:40:57.247Z,2.80
2023-05-13T13:41:57.266Z,2.80
2023-05-13T13:45:14.587Z,3.20
2023-05-13T13:46:15.627Z,3.20
2023-05-13T13:47:23.901Z,3.30
2023-05-13T13:48:15.655Z,3.00
2023-05-13T13:49:23.227Z,3.10
2023-05-13T13:50:15.877Z,4.90
2023-05-13T13:51:24.893Z,3.20
2023-05-13T13:52:25.406Z,3.00
2023-05-13T13:53:21.537Z,3.90
2023-05-13T13:56:33.610Z,3.00
2023-05-13T13:57:34.622Z,3.10
2023-05-13T13:58:34.598Z,3.20
2023-05-13T13:59:34.616Z,3.10
2023-05-13T14:01:53.036Z,3.20
2023-05-13T14:03:54.024Z,3.10
2023-05-13T14:05:01.392Z,3.60
2023-05-13T14:05:53.894Z,3.00
2023-05-13T14:06:53.953Z,3.00
2023-05-13T14:10:11.268Z,3.10
2023-05-13T14:11:12.250Z,3.10
2023-05-13T14:12:20.552Z,3.10
2023-05-13T14:13:19.064Z,3.60
2023-05-13T14:14:12.234Z,3.50
2023-05-13T14:15:12.955Z,3.50
2023-05-13T14:16:19.625Z,3.60
2023-05-13T14:17:23.646Z,3.60
2023-05-13T14:18:12.657Z,4.10
2023-05-13T14:19:22.121Z,4.10
2023-05-13T14:20:19.156Z,4.00
2023-05-13T14:21:18.743Z,4.50
2023-05-13T14:22:12.184Z,4.60
2023-05-13T14:23:18.731Z,4.40
2023-05-13T14:24:18.714Z,3.80
2023-05-13T14:25:12.101Z,3.10
2023-05-13T14:26:21.716Z,3.50
2023-05-13T14:27:18.064Z,3.80
2023-05-13T14:28:12.081Z,3.70
2023-05-13T14:29:21.753Z,4.10
2023-05-13T14:30:20.242Z,4.40
2023-05-13T14:31:12.059Z,4.40
2023-05-13T14:32:12.315Z,4.00
2023-05-13T14:33:19.348Z,3.90
2023-05-13T14:34:12.020Z,4.10
2023-05-13T14:35:18.825Z,4.30
2023-05-13T14:36:20.356Z,4.60
2023-05-13T14:37:21.869Z,4.40
2023-05-13T14:38:22.881Z,4.20
2023-05-13T14:39:11.949Z,4.60
2023-05-13T14:40:11.954Z,4.60
2023-05-13T14:41:11.924Z,4.30
2023-05-13T14:42:11.983Z,4.30
2023-05-13T14:43:18.891Z,4.50
2023-05-13T14:44:11.906Z,4.40
2023-05-13T14:45:15.896Z,4.10
2023-05-13T14:46:11.922Z,3.80
2023-05-13T14:47:18.413Z,3.70
2023-05-13T14:48:18.719Z,4.00
2023-05-13T14:49:11.844Z,3.50
2023-05-13T14:50:23.515Z,4.20
2023-05-13T14:51:11.816Z,3.70
2023-05-13T14:52:11.810Z,3.90
2023-05-13T14:54:21.184Z,4.10
2023-05-13T14:55:22.205Z,4.40
2023-05-13T14:56:22.178Z,4.10
2023-05-13T14:57:28.969Z,3.90
2023-05-13T14:58:32.972Z,4.00
2023-05-13T15:00:37.580Z,3.50
2023-05-13T15:01:44.450Z,3.60
2023-05-13T15:02:45.314Z,3.50
2023-05-13T15:03:45.266Z,3.50
2023-05-13T15:04:45.297Z,3.50
2023-05-13T15:05:38.433Z,3.30
2023-05-13T15:06:45.843Z,3.50
2023-05-13T15:07:38.397Z,3.70
2023-05-13T15:08:38.386Z,3.60
2023-05-13T15:09:44.390Z,4.00
2023-05-13T15:10:45.911Z,3.50
2023-05-13T15:11:38.727Z,3.60
2023-05-13T15:12:38.351Z,3.60
2023-05-13T15:13:38.334Z,3.60
2023-05-13T15:14:38.320Z,3.40
2023-05-13T15:15:38.336Z,3.90
2023-05-13T15:16:38.344Z,3.70
2023-05-13T15:17:46.469Z,3.70
2023-05-13T15:18:46.527Z,3.80
2023-05-13T15:19:38.463Z,3.80
2023-05-13T15:20:38.273Z,3.90
2023-05-13T15:21:38.236Z,3.80
2023-05-13T15:22:38.241Z,3.40
2023-05-13T15:23:38.223Z,2.90
2023-05-13T15:24:44.972Z,3.40
2023-05-13T15:25:38.202Z,3.00
2023-05-13T15:26:38.211Z,5.60
2023-05-13T15:27:38.174Z,2.90
2023-05-13T15:28:38.185Z,2.60
2023-05-13T15:29:38.472Z,2.70
2023-05-13T15:30:38.226Z,2.90
2023-05-13T15:31:38.166Z,2.80
2023-05-13T15:32:45.045Z,3.60
2023-05-13T15:33:38.143Z,3.20